sensor_id;sensor_type;location;lat;lon;timestamp;pressure;altitude;pressure_sealevel;temperature;humidity
38197;BME280;26543;51.976;4.616;2022-08-27T00:02:04;52524.78;;;-140.72;76.41
38197;BME280;26543;51.976;4.616;2022-08-27T00:04:30;52510.59;;;-140.72;79.59
38197;BME280;26543;51.976;4.616;2022-08-27T00:06:56;52463.91;;;-140.72;81.66
38197;BME280;26543;51.976;4.616;2022-08-27T00:09:22;52502.47;;;-140.72;82.28
38197;BME280;26543;51.976;4.616;2022-08-27T00:11:47;52482.16;;;-140.72;84.24
38197;BME280;26543;51.976;4.616;2022-08-27T00:14:14;52561.31;;;-140.72;86.47
38197;BME280;26543;51.976;4.616;2022-08-27T00:16:40;52516.66;;;-140.72;89.86
38197;BME280;26543;51.976;4.616;2022-08-27T00:19:05;52512.59;;;-140.72;91.75
38197;BME280;26543;51.976;4.616;2022-08-27T00:21:30;52516.66;;;-140.72;93.31
38197;BME280;26543;51.976;4.616;2022-08-27T00:23:57;52504.50;;;-140.72;94.88
38197;BME280;26543;51.976;4.616;2022-08-27T00:26:23;52508.56;;;-140.72;96.28
38197;BME280;26543;51.976;4.616;2022-08-27T00:28:48;52518.69;;;-140.72;98.60
38197;BME280;26543;51.976;4.616;2022-08-27T00:31:14;52543.03;;;-140.72;100.00
38197;BME280;26543;51.976;4.616;2022-08-27T00:33:40;52520.72;;;-140.72;100.00
38197;BME280;26543;51.976;4.616;2022-08-27T00:36:06;52557.25;;;-140.72;100.00
38197;BME280;26543;51.976;4.616;2022-08-27T00:38:33;52524.78;;;-140.72;100.00
38197;BME280;26543;51.976;4.616;2022-08-27T00:40:59;52524.78;;;-140.72;100.00
38197;BME280;26543;51.976;4.616;2022-08-27T00:43:27;52534.94;;;-140.72;100.00
38197;BME280;26543;51.976;4.616;2022-08-27T00:46:02;52541.03;;;-140.72;100.00
38197;BME280;26543;51.976;4.616;2022-08-27T00:48:31;52530.88;;;-140.72;100.00
38197;BME280;26543;51.976;4.616;2022-08-27T00:50:59;52512.59;;;-140.72;100.00
38197;BME280;26543;51.976;4.616;2022-08-27T00:53:28;52524.78;;;-140.72;100.00
38197;BME280;26543;51.976;4.616;2022-08-27T00:56:01;52508.56;;;-140.72;100.00
38197;BME280;26543;51.976;4.616;2022-08-27T01:00:54;52545.06;;;-140.72;100.00
38197;BME280;26543;51.976;4.616;2022-08-27T01:03:20;52545.06;;;-140.72;100.00
38197;BME280;26543;51.976;4.616;2022-08-27T01:05:46;52532.91;;;-140.72;100.00
38197;BME280;26543;51.976;4.616;2022-08-27T01:08:16;52506.53;;;-140.72;100.00
38197;BME280;26543;51.976;4.616;2022-08-27T01:10:43;52530.88;;;-140.72;100.00
38197;BME280;26543;51.976;4.616;2022-08-27T01:13:11;52534.94;;;-140.72;100.00
38197;BME280;26543;51.976;4.616;2022-08-27T01:15:38;52534.94;;;-140.72;100.00
38197;BME280;26543;51.976;4.616;2022-08-27T01:18:05;52512.59;;;-140.72;100.00
38197;BME280;26543;51.976;4.616;2022-08-27T01:20:36;52553.19;;;-140.72;100.00
38197;BME280;26543;51.976;4.616;2022-08-27T01:23:11;52524.78;;;-140.72;100.00
38197;BME280;26543;51.976;4.616;2022-08-27T01:25:44;52541.03;;;-140.72;100.00
38197;BME280;26543;51.976;4.616;2022-08-27T01:28:10;52555.22;;;-140.72;100.00
38197;BME280;26543;51.976;4.616;2022-08-27T01:30:36;52545.06;;;-140.72;100.00
38197;BME280;26543;51.976;4.616;2022-08-27T01:33:10;52563.34;;;-140.72;100.00
38197;BME280;26543;51.976;4.616;2022-08-27T01:35:39;52534.94;;;-140.72;100.00
38197;BME280;26543;51.976;4.616;2022-08-27T01:38:05;52557.25;;;-140.72;100.00
38197;BME280;26543;51.976;4.616;2022-08-27T01:40:31;52528.84;;;-140.72;100.00
38197;BME280;26543;51.976;4.616;2022-08-27T01:42:56;52547.09;;;-140.72;100.00
38197;BME280;26543;51.976;4.616;2022-08-27T01:45:27;52541.03;;;-140.72;100.00
38197;BME280;26543;51.976;4.616;2022-08-27T01:47:54;52559.28;;;-140.72;100.00
38197;BME280;26543;51.976;4.616;2022-08-27T01:50:26;52563.34;;;-140.72;100.00
38197;BME280;26543;51.976;4.616;2022-08-27T01:52:54;52518.69;;;-140.72;100.00
38197;BME280;26543;51.976;4.616;2022-08-27T01:55:23;52530.88;;;-140.72;100.00
38197;BME280;26543;51.976;4.616;2022-08-27T01:57:49;52520.72;;;-140.72;100.00
38197;BME280;26543;51.976;4.616;2022-08-27T02:00:21;52541.03;;;-140.72;100.00
38197;BME280;26543;51.976;4.616;2022-08-27T02:02:47;52545.06;;;-140.72;100.00
38197;BME280;26543;51.976;4.616;2022-08-27T02:05:13;52541.03;;;-140.72;100.00
38197;BME280;26543;51.976;4.616;2022-08-27T02:07:40;52569.44;;;-140.72;100.00
38197;BME280;26543;51.976;4.616;2022-08-27T02:10:08;52561.31;;;-140.72;100.00
38197;BME280;26543;51.976;4.616;2022-08-27T02:12:34;52563.34;;;-140.72;100.00
38197;BME280;26543;51.976;4.616;2022-08-27T02:14:59;52549.13;;;-140.72;100.00
38197;BME280;26543;51.976;4.616;2022-08-27T02:17:25;52524.78;;;-140.72;100.00
38197;BME280;26543;51.976;4.616;2022-08-27T02:19:50;52534.94;;;-140.72;100.00
38197;BME280;26543;51.976;4.616;2022-08-27T02:22:17;52506.53;;;-140.72;100.00
38197;BME280;26543;51.976;4.616;2022-08-27T02:24:43;52547.09;;;-140.72;100.00
38197;BME280;26543;51.976;4.616;2022-08-27T02:27:08;52565.38;;;-140.72;100.00
38197;BME280;26543;51.976;4.616;2022-08-27T02:29:34;52571.47;;;-140.72;100.00
38197;BME280;26543;51.976;4.616;2022-08-27T02:31:59;52547.09;;;-140.72;100.00
38197;BME280;26543;51.976;4.616;2022-08-27T02:34:26;52587.69;;;-140.72;100.00
38197;BME280;26543;51.976;4.616;2022-08-27T02:36:52;52543.03;;;-140.72;100.00
38197;BME280;26543;51.976;4.616;2022-08-27T02:39:18;52581.59;;;-140.72;100.00
38197;BME280;26543;51.976;4.616;2022-08-27T02:41:43;52524.78;;;-140.72;100.00
38197;BME280;26543;51.976;4.616;2022-08-27T02:44:09;52551.16;;;-140.72;100.00
38197;BME280;26543;51.976;4.616;2022-08-27T02:46:35;52545.06;;;-140.72;100.00
38197;BME280;26543;51.976;4.616;2022-08-27T02:49:01;52536.97;;;-140.72;100.00
38197;BME280;26543;51.976;4.616;2022-08-27T02:51:26;52526.81;;;-140.72;100.00
38197;BME280;26543;51.976;4.616;2022-08-27T02:53:52;52545.06;;;-140.72;100.00
38197;BME280;26543;51.976;4.616;2022-08-27T02:56:18;52559.28;;;-140.72;100.00
38197;BME280;26543;51.976;4.616;2022-08-27T02:58:46;52561.31;;;-140.72;100.00
38197;BME280;26543;51.976;4.616;2022-08-27T03:01:12;52551.16;;;-140.72;100.00
38197;BME280;26543;51.976;4.616;2022-08-27T03:03:37;52569.44;;;-140.72;100.00
38197;BME280;26543;51.976;4.616;2022-08-27T03:06:03;52559.28;;;-140.72;100.00
38197;BME280;26543;51.976;4.616;2022-08-27T03:08:28;52565.38;;;-140.72;100.00
38197;BME280;26543;51.976;4.616;2022-08-27T03:10:55;52577.53;;;-140.72;100.00
38197;BME280;26543;51.976;4.616;2022-08-27T03:13:22;52555.22;;;-140.72;100.00
38197;BME280;26543;51.976;4.616;2022-08-27T03:15:47;52557.25;;;-140.72;100.00
38197;BME280;26543;51.976;4.616;2022-08-27T03:18:16;52563.34;;;-140.72;100.00
38197;BME280;26543;51.976;4.616;2022-08-27T03:20:51;52545.06;;;-140.72;100.00
38197;BME280;26543;51.976;4.616;2022-08-27T03:23:18;52528.84;;;-140.72;100.00
38197;BME280;26543;51.976;4.616;2022-08-27T03:25:49;52589.72;;;-140.72;100.00
38197;BME280;26543;51.976;4.616;2022-08-27T03:28:18;52545.06;;;-140.72;100.00
38197;BME280;26543;51.976;4.616;2022-08-27T03:30:48;52545.06;;;-140.72;100.00
38197;BME280;26543;51.976;4.616;2022-08-27T03:33:14;52577.53;;;-140.72;100.00
38197;BME280;26543;51.976;4.616;2022-08-27T03:35:40;52585.66;;;-140.72;100.00
38197;BME280;26543;51.976;4.616;2022-08-27T03:38:05;52563.34;;;-140.72;100.00
38197;BME280;26543;51.976;4.616;2022-08-27T03:40:31;52597.84;;;-140.72;100.00
38197;BME280;26543;51.976;4.616;2022-08-27T03:42:56;52565.38;;;-140.72;100.00
38197;BME280;26543;51.976;4.616;2022-08-27T03:45:22;52581.59;;;-140.72;100.00
38197;BME280;26543;51.976;4.616;2022-08-27T03:47:49;52520.72;;;-140.72;100.00
38197;BME280;26543;51.976;4.616;2022-08-27T03:50:15;52573.50;;;-140.72;100.00
38197;BME280;26543;51.976;4.616;2022-08-27T03:52:40;52603.94;;;-140.72;100.00
38197;BME280;26543;51.976;4.616;2022-08-27T03:55:07;52577.53;;;-140.72;100.00
38197;BME280;26543;51.976;4.616;2022-08-27T03:57:32;52569.44;;;-140.72;100.00
38197;BME280;26543;51.976;4.616;2022-08-27T03:59:59;52565.38;;;-140.72;100.00
38197;BME280;26543;51.976;4.616;2022-08-27T04:02:25;52601.91;;;-140.72;100.00
38197;BME280;26543;51.976;4.616;2022-08-27T04:04:51;52575.50;;;-140.72;100.00
38197;BME280;26543;51.976;4.616;2022-08-27T04:07:17;52601.91;;;-140.72;100.00
38197;BME280;26543;51.976;4.616;2022-08-27T04:09:43;52571.47;;;-140.72;100.00
38197;BME280;26543;51.976;4.616;2022-08-27T04:12:11;52565.38;;;-140.72;100.00
38197;BME280;26543;51.976;4.616;2022-08-27T04:14:37;52583.63;;;-140.72;100.00
38197;BME280;26543;51.976;4.616;2022-08-27T04:17:03;52561.31;;;-140.72;100.00
38197;BME280;26543;51.976;4.616;2022-08-27T04:19:31;52553.19;;;-140.72;100.00
38197;BME280;26543;51.976;4.616;2022-08-27T04:21:59;52551.16;;;-140.72;100.00
38197;BME280;26543;51.976;4.616;2022-08-27T04:24:25;52549.13;;;-140.72;100.00
38197;BME280;26543;51.976;4.616;2022-08-27T04:26:51;52589.72;;;-140.72;100.00
38197;BME280;26543;51.976;4.616;2022-08-27T04:29:16;52577.53;;;-140.72;100.00
38197;BME280;26543;51.976;4.616;2022-08-27T04:31:42;52555.22;;;-140.72;100.00
38197;BME280;26543;51.976;4.616;2022-08-27T04:34:07;52569.44;;;-140.72;100.00
38197;BME280;26543;51.976;4.616;2022-08-27T04:36:32;52597.84;;;-140.72;100.00
38197;BME280;26543;51.976;4.616;2022-08-27T04:38:58;52571.47;;;-140.72;100.00
38197;BME280;26543;51.976;4.616;2022-08-27T04:41:23;52597.84;;;-140.72;100.00
38197;BME280;26543;51.976;4.616;2022-08-27T04:43:54;52577.53;;;-140.72;100.00
38197;BME280;26543;51.976;4.616;2022-08-27T04:46:24;52563.34;;;-140.72;100.00
38197;BME280;26543;51.976;4.616;2022-08-27T04:48:53;52624.22;;;-140.72;100.00
38197;BME280;26543;51.976;4.616;2022-08-27T04:51:19;52593.78;;;-140.72;100.00
38197;BME280;26543;51.976;4.616;2022-08-27T04:53:45;52569.44;;;-140.72;100.00
38197;BME280;26543;51.976;4.616;2022-08-27T04:56:13;52565.38;;;-140.72;100.00
38197;BME280;26543;51.976;4.616;2022-08-27T04:58:40;52561.31;;;-140.72;100.00
38197;BME280;26543;51.976;4.616;2022-08-27T05:01:05;52597.84;;;-140.72;100.00
38197;BME280;26543;51.976;4.616;2022-08-27T05:03:31;52541.03;;;-140.72;100.00
38197;BME280;26543;51.976;4.616;2022-08-27T05:06:00;52595.81;;;-140.72;100.00
38197;BME280;26543;51.976;4.616;2022-08-27T05:08:26;52561.31;;;-140.72;100.00
38197;BME280;26543;51.976;4.616;2022-08-27T05:10:52;52583.63;;;-140.72;100.00
38197;BME280;26543;51.976;4.616;2022-08-27T05:13:19;52549.13;;;-140.72;100.00
38197;BME280;26543;51.976;4.616;2022-08-27T05:15:46;52563.34;;;-140.72;100.00
38197;BME280;26543;51.976;4.616;2022-08-27T05:18:13;52522.75;;;-140.72;100.00
38197;BME280;26543;51.976;4.616;2022-08-27T05:20:47;52545.06;;;-140.72;100.00
38197;BME280;26543;51.976;4.616;2022-08-27T05:23:14;52565.38;;;-140.72;100.00
38197;BME280;26543;51.976;4.616;2022-08-27T05:25:41;52532.91;;;-140.72;100.00
38197;BME280;26543;51.976;4.616;2022-08-27T05:28:08;52539.00;;;-140.72;100.00
38197;BME280;26543;51.976;4.616;2022-08-27T05:30:39;52541.03;;;-140.72;100.00
38197;BME280;26543;51.976;4.616;2022-08-27T05:33:06;52520.72;;;-140.72;100.00
38197;BME280;26543;51.976;4.616;2022-08-27T05:35:32;52553.19;;;-140.72;100.00
38197;BME280;26543;51.976;4.616;2022-08-27T05:37:57;52557.25;;;-140.72;100.00
38197;BME280;26543;51.976;4.616;2022-08-27T05:40:24;52496.38;;;-140.72;100.00
38197;BME280;26543;51.976;4.616;2022-08-27T05:42:50;52534.94;;;-140.72;100.00
38197;BME280;26543;51.976;4.616;2022-08-27T05:45:15;52514.63;;;-140.72;100.00
38197;BME280;26543;51.976;4.616;2022-08-27T05:47:41;52530.88;;;-140.72;100.00
38197;BME280;26543;51.976;4.616;2022-08-27T05:50:08;52508.56;;;-140.72;100.00
38197;BME280;26543;51.976;4.616;2022-08-27T05:52:35;52506.53;;;-140.72;100.00
38197;BME280;26543;51.976;4.616;2022-08-27T05:55:00;52496.38;;;-140.72;100.00
38197;BME280;26543;51.976;4.616;2022-08-27T05:57:25;52480.16;;;-140.72;100.00
38197;BME280;26543;51.976;4.616;2022-08-27T05:59:51;52482.16;;;-140.72;100.00
38197;BME280;26543;51.976;4.616;2022-08-27T06:02:35;52480.16;;;-140.72;100.00
38197;BME280;26543;51.976;4.616;2022-08-27T06:05:02;52508.56;;;-140.72;100.00
38197;BME280;26543;51.976;4.616;2022-08-27T06:07:29;52476.09;;;-140.72;100.00
38197;BME280;26543;51.976;4.616;2022-08-27T06:09:54;52490.28;;;-140.72;100.00
38197;BME280;26543;51.976;4.616;2022-08-27T06:12:22;52496.38;;;-140.72;100.00
38197;BME280;26543;51.976;4.616;2022-08-27T06:14:47;52476.09;;;-140.72;100.00
38197;BME280;26543;51.976;4.616;2022-08-27T06:17:12;52486.22;;;-140.72;100.00
38197;BME280;26543;51.976;4.616;2022-08-27T06:19:38;52492.31;;;-140.72;100.00
38197;BME280;26543;51.976;4.616;2022-08-27T06:22:03;52459.84;;;-140.72;100.00
38197;BME280;26543;51.976;4.616;2022-08-27T06:24:29;52457.81;;;-140.72;100.00
38197;BME280;26543;51.976;4.616;2022-08-27T06:26:54;52467.97;;;-140.72;92.86
38197;BME280;26543;51.976;4.616;2022-08-27T06:29:21;52427.38;;;-140.72;83.54
38197;BME280;26543;51.976;4.616;2022-08-27T06:31:48;52480.16;;;-140.72;78.41
38197;BME280;26543;51.976;4.616;2022-08-27T06:34:14;52478.13;;;-140.72;69.37
38197;BME280;26543;51.976;4.616;2022-08-27T06:36:40;52431.44;;;-140.72;58.32
38197;BME280;26543;51.976;4.616;2022-08-27T06:39:07;52459.84;;;-140.72;49.61
38197;BME280;26543;51.976;4.616;2022-08-27T06:41:33;52447.69;;;-140.72;45.17
38197;BME280;26543;51.976;4.616;2022-08-27T06:43:59;52427.38;;;-140.72;43.76
38197;BME280;26543;51.976;4.616;2022-08-27T06:46:26;52482.16;;;-140.72;36.64
38197;BME280;26543;51.976;4.616;2022-08-27T06:48:55;52465.94;;;-140.72;32.81
38197;BME280;26543;51.976;4.616;2022-08-27T06:51:23;52459.84;;;-140.72;27.88
38197;BME280;26543;51.976;4.616;2022-08-27T06:53:50;52459.84;;;-140.72;29.61
38197;BME280;26543;51.976;4.616;2022-08-27T06:56:16;52488.25;;;-140.72;30.73
38197;BME280;26543;51.976;4.616;2022-08-27T06:58:43;52415.22;;;-140.72;25.46
38197;BME280;26543;51.976;4.616;2022-08-27T07:01:17;52431.44;;;-140.72;24.11
38197;BME280;26543;51.976;4.616;2022-08-27T07:03:43;52407.09;;;-140.72;18.13
38197;BME280;26543;51.976;4.616;2022-08-27T07:06:11;52407.09;;;-140.72;16.50
38197;BME280;26543;51.976;4.616;2022-08-27T07:08:37;52413.19;;;-140.72;9.09
38197;BME280;26543;51.976;4.616;2022-08-27T07:11:04;52425.34;;;-140.72;4.23
38197;BME280;26543;51.976;4.616;2022-08-27T07:13:30;52401.00;;;-140.72;1.06
38197;BME280;26543;51.976;4.616;2022-08-27T07:15:56;52401.00;;;-140.72;0.62
38197;BME280;26543;51.976;4.616;2022-08-27T07:18:21;52398.97;;;-140.72;0.75
38197;BME280;26543;51.976;4.616;2022-08-27T07:20:48;52370.56;;;-140.72;0.00
38197;BME280;26543;51.976;4.616;2022-08-27T07:23:15;52439.56;;;-140.72;0.00
38197;BME280;26543;51.976;4.616;2022-08-27T07:25:41;52394.91;;;-140.72;0.00
38197;BME280;26543;51.976;4.616;2022-08-27T07:28:06;52346.22;;;-140.72;0.00
38197;BME280;26543;51.976;4.616;2022-08-27T07:30:32;52398.97;;;-140.72;0.00
38197;BME280;26543;51.976;4.616;2022-08-27T07:32:57;52370.56;;;-140.72;0.00
38197;BME280;26543;51.976;4.616;2022-08-27T07:35:22;52360.44;;;-140.72;0.00
38197;BME280;26543;51.976;4.616;2022-08-27T07:37:49;52392.88;;;-140.72;0.00
38197;BME280;26543;51.976;4.616;2022-08-27T07:40:15;52356.38;;;-140.72;0.00
38197;BME280;26543;51.976;4.616;2022-08-27T07:42:41;52386.81;;;-140.72;0.00
38197;BME280;26543;51.976;4.616;2022-08-27T07:45:26;52386.81;;;-140.72;0.00
38197;BME280;26543;51.976;4.616;2022-08-27T07:47:52;52382.75;;;-140.72;0.00
38197;BME280;26543;51.976;4.616;2022-08-27T07:50:20;52370.56;;;-140.72;0.00
38197;BME280;26543;51.976;4.616;2022-08-27T07:52:48;52350.28;;;-140.72;0.00
38197;BME280;26543;51.976;4.616;2022-08-27T07:55:13;52346.22;;;-140.72;0.00
38197;BME280;26543;51.976;4.616;2022-08-27T07:57:39;52388.84;;;-140.72;0.00
38197;BME280;26543;51.976;4.616;2022-08-27T08:00:06;52360.44;;;-140.72;0.00
38197;BME280;26543;51.976;4.616;2022-08-27T08:02:35;52368.53;;;-140.72;0.00
38197;BME280;26543;51.976;4.616;2022-08-27T08:05:00;52313.75;;;-140.72;0.00
38197;BME280;26543;51.976;4.616;2022-08-27T08:07:25;52342.16;;;-140.72;0.00
38197;BME280;26543;51.976;4.616;2022-08-27T08:09:51;52330.00;;;-140.72;0.00
38197;BME280;26543;51.976;4.616;2022-08-27T08:12:16;52334.03;;;-140.72;0.00
38197;BME280;26543;51.976;4.616;2022-08-27T08:14:42;52346.22;;;-140.72;0.00
38197;BME280;26543;51.976;4.616;2022-08-27T08:17:07;52340.13;;;-140.72;0.00
38197;BME280;26543;51.976;4.616;2022-08-27T08:19:33;52299.56;;;-140.72;0.00
38197;BME280;26543;51.976;4.616;2022-08-27T08:21:59;52317.81;;;-140.72;0.00
38197;BME280;26543;51.976;4.616;2022-08-27T08:24:25;52297.53;;;-140.72;0.00
38197;BME280;26543;51.976;4.616;2022-08-27T08:26:50;52256.94;;;-140.72;0.00
38197;BME280;26543;51.976;4.616;2022-08-27T08:29:16;52297.53;;;-140.72;0.00
38197;BME280;26543;51.976;4.616;2022-08-27T08:31:42;52342.16;;;-140.72;0.00
38197;BME280;26543;51.976;4.616;2022-08-27T08:34:08;52315.78;;;-140.72;0.00
38197;BME280;26543;51.976;4.616;2022-08-27T08:36:34;52281.28;;;-140.72;0.00
38197;BME280;26543;51.976;4.616;2022-08-27T08:38:59;52256.94;;;-140.72;0.00
38197;BME280;26543;51.976;4.616;2022-08-27T08:41:45;52321.88;;;-140.72;0.00
38197;BME280;26543;51.976;4.616;2022-08-27T08:46:48;52279.25;;;-140.72;0.00
38197;BME280;26543;51.976;4.616;2022-08-27T08:54:38;52246.78;;;-140.72;0.00
38197;BME280;26543;51.976;4.616;2022-08-27T08:57:21;52250.84;;;-140.72;0.00
38197;BME280;26543;51.976;4.616;2022-08-27T09:00:03;52283.31;;;-140.72;0.00
38197;BME280;26543;51.976;4.616;2022-08-27T09:02:29;52261.00;;;-140.72;0.00
38197;BME280;26543;51.976;4.616;2022-08-27T09:04:56;52283.31;;;-140.72;0.00
38197;BME280;26543;51.976;4.616;2022-08-27T09:07:49;52232.59;;;-140.72;0.00
38197;BME280;26543;51.976;4.616;2022-08-27T09:10:22;52192.00;;;-140.72;0.00
38197;BME280;26543;51.976;4.616;2022-08-27T09:12:52;52232.59;;;-140.72;0.00
38197;BME280;26543;51.976;4.616;2022-08-27T09:15:26;52246.78;;;-140.72;0.00
38197;BME280;26543;51.976;4.616;2022-08-27T09:18:04;52240.72;;;-140.72;0.00
38197;BME280;26543;51.976;4.616;2022-08-27T09:20:30;52192.00;;;-140.72;0.00
38197;BME280;26543;51.976;4.616;2022-08-27T09:23:05;52175.78;;;-140.72;0.00
38197;BME280;26543;51.976;4.616;2022-08-27T09:25:38;52147.38;;;-140.72;0.00
38197;BME280;26543;51.976;4.616;2022-08-27T09:28:27;52094.63;;;-140.72;0.00
38197;BME280;26543;51.976;4.616;2022-08-27T09:31:15;52104.75;;;-140.72;0.00
38197;BME280;26543;51.976;4.616;2022-08-27T09:33:41;52129.13;;;-140.72;0.00
38197;BME280;26543;51.976;4.616;2022-08-27T09:36:12;52102.75;;;-140.72;0.00
38197;BME280;26543;51.976;4.616;2022-08-27T09:38:41;52025.63;;;-140.72;0.00
38197;BME280;26543;51.976;4.616;2022-08-27T09:41:23;52017.53;;;-140.72;0.00
38197;BME280;26543;51.976;4.616;2022-08-27T09:44:06;51940.41;;;-140.72;0.00
38197;BME280;26543;51.976;4.616;2022-08-27T09:46:31;52025.63;;;-140.72;0.00
38197;BME280;26543;51.976;4.616;2022-08-27T09:48:57;52049.97;;;-140.72;0.00
38197;BME280;26543;51.976;4.616;2022-08-27T09:51:33;52092.59;;;-140.72;0.00
38197;BME280;26543;51.976;4.616;2022-08-27T09:54:00;52098.69;;;-140.72;0.00
38197;BME280;26543;51.976;4.616;2022-08-27T09:56:32;52114.91;;;-140.72;0.00
38197;BME280;26543;51.976;4.616;2022-08-27T09:59:03;52228.53;;;-140.72;0.00
38197;BME280;26543;51.976;4.616;2022-08-27T10:01:32;52198.09;;;-140.72;0.00
38197;BME280;26543;51.976;4.616;2022-08-27T10:04:10;52248.81;;;-140.72;0.00
38197;BME280;26543;51.976;4.616;2022-08-27T10:06:37;52224.47;;;-140.72;0.00
38197;BME280;26543;51.976;4.616;2022-08-27T10:11:58;52254.91;;;-140.72;0.00
38197;BME280;26543;51.976;4.616;2022-08-27T10:14:49;52273.19;;;-140.72;0.00
38197;BME280;26543;51.976;4.616;2022-08-27T10:19:57;52248.81;;;-140.72;0.00
38197;BME280;26543;51.976;4.616;2022-08-27T10:36:11;52143.31;;;-140.72;0.00
38197;BME280;26543;51.976;4.616;2022-08-27T10:38:49;52072.31;;;-140.72;0.00
38197;BME280;26543;51.976;4.616;2022-08-27T10:41:39;52082.44;;;-140.72;0.00
38197;BME280;26543;51.976;4.616;2022-08-27T10:44:10;52123.03;;;-140.72;0.00
38197;BME280;26543;51.976;4.616;2022-08-27T10:49:39;51920.13;;;-140.72;0.00
38197;BME280;26543;51.976;4.616;2022-08-27T10:52:20;52005.34;;;-140.72;0.00
38197;BME280;26543;51.976;4.616;2022-08-27T11:00:17;52218.38;;;-140.72;0.00
38197;BME280;26543;51.976;4.616;2022-08-27T11:02:48;52187.97;;;-140.72;0.00
38197;BME280;26543;51.976;4.616;2022-08-27T11:05:19;52037.81;;;-140.72;0.00
38197;BME280;26543;51.976;4.616;2022-08-27T11:07:50;52098.69;;;-140.72;0.00
38197;BME280;26543;51.976;4.616;2022-08-27T11:12:53;52137.22;;;-140.72;0.00
38197;BME280;26543;51.976;4.616;2022-08-27T11:15:24;52208.25;;;-140.72;0.00
38197;BME280;26543;51.976;4.616;2022-08-27T11:18:16;52179.84;;;-140.72;0.00
38197;BME280;26543;51.976;4.616;2022-08-27T11:20:57;52157.53;;;-140.72;0.00
38197;BME280;26543;51.976;4.616;2022-08-27T11:23:29;52125.06;;;-140.72;0.00
38197;BME280;26543;51.976;4.616;2022-08-27T11:25:59;52196.06;;;-140.72;0.00
38197;BME280;26543;51.976;4.616;2022-08-27T11:31:10;52183.91;;;-140.72;0.00
38197;BME280;26543;51.976;4.616;2022-08-27T11:33:45;52175.78;;;-140.72;0.00
38197;BME280;26543;51.976;4.616;2022-08-27T11:44:42;52277.22;;;-140.72;0.00
38197;BME280;26543;51.976;4.616;2022-08-27T11:47:20;52279.25;;;-140.72;0.00
38197;BME280;26543;51.976;4.616;2022-08-27T11:49:50;52277.22;;;-140.72;0.00
38197;BME280;26543;51.976;4.616;2022-08-27T11:52:36;52258.97;;;-140.72;0.00
38197;BME280;26543;51.976;4.616;2022-08-27T11:57:48;52240.72;;;-140.72;0.00
38197;BME280;26543;51.976;4.616;2022-08-27T12:03:00;52183.91;;;-140.72;0.00
38197;BME280;26543;51.976;4.616;2022-08-27T12:14:24;52118.97;;;-140.72;0.00
38197;BME280;26543;51.976;4.616;2022-08-27T12:17:04;52118.97;;;-140.72;0.00
38197;BME280;26543;51.976;4.616;2022-08-27T12:20:06;52054.03;;;-140.72;0.00
38197;BME280;26543;51.976;4.616;2022-08-27T12:25:39;51780.16;;;-140.72;0.00
38197;BME280;26543;51.976;4.616;2022-08-27T12:30:28;51688.84;;;-140.72;0.00
38197;BME280;26543;51.976;4.616;2022-08-27T12:32:56;51731.44;;;-140.72;0.00
38197;BME280;26543;51.976;4.616;2022-08-27T12:38:19;51686.81;;;-140.72;0.00
38197;BME280;26543;51.976;4.616;2022-08-27T12:40:51;51670.59;;;-140.72;0.00
38197;BME280;26543;51.976;4.616;2022-08-27T12:43:24;51745.66;;;-140.72;0.00
38197;BME280;26543;51.976;4.616;2022-08-27T12:45:57;51788.25;;;-140.72;0.00
38197;BME280;26543;51.976;4.616;2022-08-27T12:48:31;51849.13;;;-140.72;0.00
38197;BME280;26543;51.976;4.616;2022-08-27T12:51:06;51964.78;;;-140.72;0.00
38197;BME280;26543;51.976;4.616;2022-08-27T12:53:40;52001.28;;;-140.72;0.00
38197;BME280;26543;51.976;4.616;2022-08-27T13:02:12;52131.16;;;-140.72;0.00
38197;BME280;26543;51.976;4.616;2022-08-27T13:04:36;52133.16;;;-140.72;0.00
38197;BME280;26543;51.976;4.616;2022-08-27T13:07:02;52163.59;;;-140.72;0.00
38197;BME280;26543;51.976;4.616;2022-08-27T13:09:30;52187.97;;;-140.72;0.00
38197;BME280;26543;51.976;4.616;2022-08-27T13:11:57;52171.72;;;-140.72;0.00
38197;BME280;26543;51.976;4.616;2022-08-27T13:14:25;52159.56;;;-140.72;0.00
38197;BME280;26543;51.976;4.616;2022-08-27T13:16:52;52163.59;;;-140.72;0.00
38197;BME280;26543;51.976;4.616;2022-08-27T13:19:36;52216.34;;;-140.72;0.00
38197;BME280;26543;51.976;4.616;2022-08-27T13:22:07;52155.50;;;-140.72;0.00
38197;BME280;26543;51.976;4.616;2022-08-27T13:24:36;52155.50;;;-140.72;0.00
38197;BME280;26543;51.976;4.616;2022-08-27T13:27:08;52192.00;;;-140.72;0.00
38197;BME280;26543;51.976;4.616;2022-08-27T13:29:33;52151.44;;;-140.72;0.00
38197;BME280;26543;51.976;4.616;2022-08-27T13:31:59;52175.78;;;-140.72;0.00
38197;BME280;26543;51.976;4.616;2022-08-27T13:34:27;52167.66;;;-140.72;0.00
38197;BME280;26543;51.976;4.616;2022-08-27T13:37:00;52179.84;;;-140.72;0.00
38197;BME280;26543;51.976;4.616;2022-08-27T13:39:28;52218.38;;;-140.72;0.00
38197;BME280;26543;51.976;4.616;2022-08-27T13:41:57;52196.06;;;-140.72;0.00
38197;BME280;26543;51.976;4.616;2022-08-27T13:44:27;52232.59;;;-140.72;0.00
38197;BME280;26543;51.976;4.616;2022-08-27T13:47:02;52179.84;;;-140.72;0.00
38197;BME280;26543;51.976;4.616;2022-08-27T13:49:31;52216.34;;;-140.72;0.00
38197;BME280;26543;51.976;4.616;2022-08-27T13:52:24;52234.63;;;-140.72;0.00
38197;BME280;26543;51.976;4.616;2022-08-27T13:55:02;52179.84;;;-140.72;0.00
38197;BME280;26543;51.976;4.616;2022-08-27T13:57:40;52200.13;;;-140.72;0.00
38197;BME280;26543;51.976;4.616;2022-08-27T14:00:18;52204.19;;;-140.72;0.00
38197;BME280;26543;51.976;4.616;2022-08-27T14:02:44;52224.47;;;-140.72;0.00
38197;BME280;26543;51.976;4.616;2022-08-27T14:10:48;52228.53;;;-140.72;0.00
38197;BME280;26543;51.976;4.616;2022-08-27T14:15:42;52212.31;;;-140.72;0.00
38197;BME280;26543;51.976;4.616;2022-08-27T14:18:26;52187.97;;;-140.72;0.00